Time;durP1;ratioP1;P1;durP2;ratioP2;P2;SDS_P1;SDS_P2;PMS_P1;PMS_P2;Temp;Humidity;BMP_temperature;BMP_pressure;BME280_temperature;BME280_humidity;BME280_pressure;Samples;Min_cycle;Max_cycle;Signal;HPM_P1;HPM_P2
2021/06/17 00:00:13;;;;;;;5.87;3.50;;;;;;;21.59;60.69;100538.46;1790093;78;21117;-58
2021/06/17 00:02:40;;;;;;;10.10;4.45;;;;;;;21.56;60.64;100534.82;1765088;79;21077;-58
2021/06/17 00:05:08;;;;;;;6.62;3.77;;;;;;;21.52;60.76;100529.02;1793147;78;21116;-58
2021/06/17 00:07:36;;;;;;;8.15;3.22;;;;;;;21.46;60.47;100525.21;1790564;78;21076;-59
2021/06/17 00:10:07;;;;;;;7.67;3.08;;;;;;;21.44;60.35;100527.26;1790231;78;21101;-59
2021/06/17 00:12:33;;;;;;;5.65;3.08;;;;;;;21.47;60.11;100522.08;1761113;79;21057;-58
2021/06/17 00:15:00;;;;;;;5.95;3.40;;;;;;;21.43;59.99;100512.72;1791372;78;21054;-60
2021/06/17 00:17:27;;;;;;;7.03;3.52;;;;;;;21.36;59.86;100515.33;1789184;78;21085;-58
2021/06/17 00:19:53;;;;;;;6.33;3.20;;;;;;;21.28;59.91;100513.62;1790088;78;21603;-58
2021/06/17 00:22:20;;;;;;;7.17;3.58;;;;;;;21.20;60.01;100512.41;1755757;78;21112;-59
2021/06/17 00:24:47;;;;;;;7.03;3.30;;;;;;;21.13;60.29;100512.82;1789391;78;21125;-59
2021/06/17 00:27:13;;;;;;;8.15;3.77;;;;;;;21.06;60.28;100506.05;1788860;78;21544;-59
2021/06/17 00:29:40;;;;;;;7.03;3.77;;;;;;;21.02;60.35;100511.99;1786844;78;21084;-59
2021/06/17 00:32:08;;;;;;;6.37;3.65;;;;;;;21.03;60.32;100514.48;1788395;78;21085;-59
2021/06/17 00:34:35;;;;;;;8.10;4.05;;;;;;;20.96;60.38;100515.74;1784158;78;21083;-59
2021/06/17 00:37:01;;;;;;;7.58;4.42;;;;;;;20.90;60.49;100509.80;1781325;78;21141;-59
2021/06/17 00:39:27;;;;;;;7.33;3.80;;;;;;;20.87;60.54;100520.86;1815038;77;21098;-58
2021/06/17 00:41:54;;;;;;;6.95;3.65;;;;;;;20.82;60.63;100520.59;1812346;77;21058;-58
2021/06/17 00:44:20;;;;;;;8.48;3.95;;;;;;;20.77;60.82;100529.69;1783268;78;21078;-59
2021/06/17 00:46:47;;;;;;;9.78;3.72;;;;;;;20.72;60.82;100536.92;1776619;77;21105;-58
2021/06/17 00:49:15;;;;;;;6.97;3.10;;;;;;;20.72;60.90;100538.26;1813800;77;21109;-59
2021/06/17 00:51:41;;;;;;;5.70;3.50;;;;;;;20.77;60.89;100539.05;1747173;80;21081;-59
2021/06/17 00:54:07;;;;;;;7.95;4.50;;;;;;;20.78;60.83;100536.70;1784596;78;21368;-59
2021/06/17 00:56:34;;;;;;;7.17;3.87;;;;;;;20.77;60.88;100535.86;1785191;78;21045;-59
2021/06/17 00:59:00;;;;;;;7.80;3.75;;;;;;;20.74;60.84;100533.55;1759356;77;21196;-59
2021/06/17 01:01:27;;;;;;;8.00;3.10;;;;;;;20.71;61.06;100525.08;1809775;77;21132;-59
2021/06/17 01:03:54;;;;;;;6.10;3.55;;;;;;;20.70;61.12;100534.12;1776649;78;21090;-60
2021/06/17 01:06:20;;;;;;;7.30;3.90;;;;;;;20.65;61.17;100528.52;1777749;78;21133;-60
2021/06/17 01:09:05;;;;;;;5.72;3.33;;;;;;;20.59;61.32;100526.88;1783900;78;21647;-60
2021/06/17 01:11:46;;;;;;;6.85;4.10;;;;;;;20.59;61.33;100528.69;1783625;78;21077;-60
2021/06/17 01:14:17;;;;;;;5.72;3.52;;;;;;;20.63;61.32;100534.05;1801051;77;21090;-59
2021/06/17 01:20:06;;;;;;;7.50;3.67;;;;;;;20.60;61.29;100537.87;1863024;74;22558;-59
2021/06/17 01:22:40;;;;;;;6.15;3.98;;;;;;;20.52;61.40;100544.64;1781970;78;21095;-58
2021/06/17 01:26:05;;;;;;;5.72;3.77;;;;;;;20.48;61.49;100548.70;1777280;77;21073;-59
2021/06/17 01:28:31;;;;;;;8.83;3.92;;;;;;;20.44;61.62;100538.56;1776773;78;21069;-60
2021/06/17 01:31:11;;;;;;;6.55;3.83;;;;;;;20.32;62.03;100535.52;1807569;77;21604;-60
2021/06/17 01:33:40;;;;;;;6.53;3.35;;;;;;;20.29;62.11;100544.74;1775937;78;21702;-60
2021/06/17 01:36:17;;;;;;;5.37;3.70;;;;;;;20.32;62.01;100559.56;1805292;78;21124;-60
2021/06/17 01:38:48;;;;;;;5.37;3.27;;;;;;;20.33;62.11;100555.89;1780714;78;21100;-59
2021/06/17 01:41:14;;;;;;;6.85;3.65;;;;;;;20.32;62.10;100572.92;1790564;78;21064;-59
2021/06/17 01:43:42;;;;;;;8.30;3.75;;;;;;;20.30;62.08;100578.45;1721423;78;21057;-58
2021/06/17 01:46:08;;;;;;;7.35;3.70;;;;;;;20.26;62.08;100578.98;1804358;77;21148;-59
2021/06/17 01:48:35;;;;;;;8.88;4.25;;;;;;;20.23;62.15;100578.34;1741189;78;21097;-59
2021/06/17 01:51:01;;;;;;;6.92;3.98;;;;;;;20.17;62.27;100579.09;1780870;78;21595;-59
2021/06/17 01:53:28;;;;;;;7.10;3.65;;;;;;;20.17;62.47;100583.09;1806439;77;21039;-59
2021/06/17 01:55:57;;;;;;;6.45;3.55;;;;;;;20.23;62.37;100587.69;1805869;77;21105;-59
2021/06/17 01:58:24;;;;;;;6.85;3.87;;;;;;;20.26;62.34;100588.34;1776441;78;21096;-58
2021/06/17 02:00:51;;;;;;;6.90;3.85;;;;;;;20.25;62.36;100594.70;1803814;77;21113;-59
2021/06/17 02:03:18;;;;;;;7.67;3.98;;;;;;;20.21;62.42;100594.25;1775289;78;21148;-59
2021/06/17 02:05:44;;;;;;;8.13;3.85;;;;;;;20.19;62.49;100597.09;1751749;78;21690;-59
2021/06/17 02:08:11;;;;;;;10.18;4.03;;;;;;;20.17;62.58;100600.45;1804526;77;21070;-59
2021/06/17 02:10:38;;;;;;;6.42;4.33;;;;;;;20.15;62.74;100595.78;1806864;77;21096;-59
2021/06/17 02:13:06;;;;;;;6.40;3.62;;;;;;;20.14;62.75;100591.46;1807264;77;21066;-59
2021/06/17 02:15:32;;;;;;;6.10;3.40;;;;;;;20.19;62.71;100593.09;1809528;77;21112;-59
2021/06/17 02:17:59;;;;;;;9.38;3.75;;;;;;;20.23;62.73;100593.55;1804708;77;21083;-60
2021/06/17 02:20:26;;;;;;;8.58;3.62;;;;;;;20.21;62.84;100592.39;1780884;78;21152;-59
2021/06/17 02:22:56;;;;;;;6.10;4.15;;;;;;;20.20;62.99;100584.04;1773132;78;21006;-59
2021/06/17 02:25:23;;;;;;;5.60;3.05;;;;;;;20.18;63.03;100591.41;1805483;77;21053;-59
2021/06/17 02:28:00;;;;;;;8.05;3.98;;;;;;;20.17;62.99;100598.27;1771154;78;21258;-60
2021/06/17 02:30:28;;;;;;;8.43;4.37;;;;;;;20.13;62.91;100596.47;1770365;78;21090;-59
2021/06/17 02:32:55;;;;;;;7.80;3.62;;;;;;;20.15;62.96;100589.09;1804569;77;21708;-59
2021/06/17 02:35:24;;;;;;;6.80;3.42;;;;;;;20.20;62.82;100584.04;1782011;78;21572;-59
2021/06/17 02:37:54;;;;;;;6.20;3.85;;;;;;;20.23;62.79;100586.36;1807111;78;22547;-59
2021/06/17 02:40:20;;;;;;;6.87;4.15;;;;;;;20.22;62.83;100580.70;1780386;78;21472;-60
2021/06/17 02:42:47;;;;;;;8.50;3.80;;;;;;;20.21;62.96;100593.73;1803165;77;21068;-59
2021/06/17 02:45:15;;;;;;;7.03;3.37;;;;;;;20.19;63.06;100589.08;1775833;78;21073;-58
2021/06/17 02:47:41;;;;;;;7.08;4.03;;;;;;;20.17;63.11;100597.79;1776900;78;21111;-58
2021/06/17 02:50:09;;;;;;;7.72;4.20;;;;;;;20.16;63.13;100596.11;1808995;77;20994;-58
2021/06/17 02:52:40;;;;;;;7.10;3.65;;;;;;;20.20;63.19;100594.73;1807094;77;21642;-58
2021/06/17 02:55:09;;;;;;;6.92;4.25;;;;;;;20.26;62.97;100605.22;1772182;78;21114;-59
2021/06/17 02:57:59;;;;;;;7.83;4.47;;;;;;;20.25;63.12;100602.72;1772404;78;21574;-59
2021/06/17 03:00:30;;;;;;;6.42;4.33;;;;;;;20.23;62.94;100614.41;1773280;79;21177;-59
2021/06/17 03:03:43;;;;;;;7.22;4.20;;;;;;;20.19;63.04;100616.28;1770078;78;21146;-59
2021/06/17 03:06:29;;;;;;;6.60;3.62;;;;;;;20.17;63.00;100622.31;1751399;79;21146;-60
2021/06/17 03:08:59;;;;;;;7.22;4.12;;;;;;;20.22;62.90;100630.62;1770548;78;21464;-60
2021/06/17 03:11:27;;;;;;;7.42;3.80;;;;;;;20.27;62.83;100640.77;1748338;80;22553;-60
2021/06/17 03:13:57;;;;;;;7.65;3.75;;;;;;;20.27;62.89;100640.77;1772631;79;21074;-59
2021/06/17 03:16:34;;;;;;;5.95;3.67;;;;;;;20.29;62.85;100640.08;1770904;78;21074;-60
2021/06/17 03:19:02;;;;;;;7.85;3.98;;;;;;;20.28;62.74;100637.11;1749490;80;21136;-62
2021/06/17 03:21:33;;;;;;;7.33;3.60;;;;;;;20.25;62.97;100636.94;1775832;80;21089;-61
2021/06/17 03:23:59;;;;;;;6.03;3.30;;;;;;;20.29;62.79;100642.75;1811929;77;21103;-60
2021/06/17 03:26:26;;;;;;;6.15;3.90;;;;;;;20.35;62.78;100646.05;1754866;79;21625;-60
2021/06/17 03:28:54;;;;;;;6.70;3.70;;;;;;;20.39;62.81;100646.00;1782058;78;21133;-59
2021/06/17 03:31:21;;;;;;;5.62;3.30;;;;;;;20.39;62.79;100646.85;1812262;77;21111;-60
2021/06/17 03:33:50;;;;;;;6.53;3.65;;;;;;;20.41;62.88;100648.02;1785846;78;21015;-60
2021/06/17 03:36:17;;;;;;;9.28;3.60;;;;;;;20.41;62.87;100655.52;1809475;77;21117;-60
2021/06/17 03:38:45;;;;;;;9.93;3.45;;;;;;;20.43;63.01;100654.52;1777547;78;21068;-60
2021/06/17 03:41:14;;;;;;;8.53;3.33;;;;;;;20.48;62.90;100662.81;1781061;78;21081;-60
2021/06/17 03:43:41;;;;;;;6.08;3.62;;;;;;;20.60;62.91;100664.85;1777555;78;21127;-61
2021/06/17 03:46:09;;;;;;;7.22;3.80;;;;;;;20.78;62.81;100669.89;1781391;78;21042;-60
2021/06/17 03:48:41;;;;;;;6.90;3.80;;;;;;;20.93;62.16;100675.27;1777643;78;21108;-59
2021/06/17 03:51:08;;;;;;;7.12;3.55;;;;;;;21.04;61.97;100679.83;1809980;77;21073;-60
2021/06/17 03:53:36;;;;;;;6.65;4.15;;;;;;;21.10;61.80;100681.77;1808212;77;21088;-61
2021/06/17 03:56:03;;;;;;;6.62;3.42;;;;;;;21.14;61.58;100685.73;1782461;78;22561;-61
2021/06/17 03:58:30;;;;;;;6.35;3.95;;;;;;;21.15;61.63;100686.88;1758946;80;21144;-59
2021/06/17 04:00:57;;;;;;;5.92;3.70;;;;;;;21.16;61.52;100690.38;1810337;77;21069;-60
2021/06/17 04:03:26;;;;;;;5.40;3.30;;;;;;;21.12;61.71;100685.09;1749385;80;21090;-60
2021/06/17 04:05:57;;;;;;;8.18;3.27;;;;;;;21.17;61.72;100683.20;1811028;77;21566;-63
2021/06/17 04:08:31;;;;;;;7.25;3.52;;;;;;;21.23;61.42;100681.95;1763071;77;21200;-64
2021/06/17 04:11:00;;;;;;;5.37;3.17;;;;;;;21.28;61.60;100679.55;1809986;77;21115;-66
2021/06/17 04:13:29;;;;;;;8.53;4.05;;;;;;;21.31;61.50;100679.16;1777938;78;21026;-65
2021/06/17 04:15:55;;;;;;;5.80;3.20;;;;;;;21.33;61.56;100678.48;1763220;79;21066;-65
2021/06/17 04:18:25;;;;;;;6.00;3.90;;;;;;;21.38;61.67;100670.39;1776334;78;21191;-65
2021/06/17 04:20:54;;;;;;;6.72;3.35;;;;;;;21.41;61.14;100665.48;1780538;79;21178;-64
2021/06/17 04:23:21;;;;;;;6.53;3.67;;;;;;;21.42;61.38;100662.33;1781421;79;21098;-63
2021/06/17 04:25:48;;;;;;;6.75;3.37;;;;;;;21.44;61.25;100669.13;1812026;77;20983;-63
2021/06/17 04:28:15;;;;;;;8.65;3.90;;;;;;;21.51;61.37;100664.71;1778264;78;21539;-63
2021/06/17 04:30:42;;;;;;;6.80;3.30;;;;;;;21.56;61.58;100667.35;1813049;78;21092;-63
2021/06/17 04:33:12;;;;;;;6.15;3.55;;;;;;;21.60;61.77;100666.80;1813440;78;21764;-62
2021/06/17 04:35:41;;;;;;;7.10;4.25;;;;;;;21.62;61.68;100676.80;1814920;77;21081;-63
2021/06/17 04:38:12;;;;;;;11.00;5.17;;;;;;;21.65;61.78;100681.78;1819161;77;21501;-63
2021/06/17 04:40:39;;;;;;;10.10;5.50;;;;;;;21.68;61.59;100681.38;1810787;77;21092;-58
2021/06/17 04:43:07;;;;;;;6.83;4.17;;;;;;;21.70;61.66;100680.70;1814732;77;21036;-59
2021/06/17 04:45:34;;;;;;;9.33;4.40;;;;;;;21.73;61.73;100676.80;1789331;78;21094;-58
2021/06/17 04:48:05;;;;;;;7.12;3.90;;;;;;;21.81;61.33;100672.67;1801279;77;21629;-58
2021/06/17 04:50:30;;;;;;;9.18;6.08;;;;;;;21.81;60.98;100682.05;1815072;77;22481;-59
2021/06/17 04:53:04;;;;;;;7.10;4.90;;;;;;;21.77;61.36;100677.25;1770050;78;21622;-58
2021/06/17 04:55:30;;;;;;;9.00;5.10;;;;;;;21.73;61.30;100682.16;1789195;78;21152;-60
2021/06/17 04:57:57;;;;;;;6.45;3.85;;;;;;;21.68;61.63;100685.92;1787181;78;21338;-60
2021/06/17 05:00:23;;;;;;;15.85;9.98;;;;;;;21.67;61.71;100685.09;1817824;78;21132;-59
2021/06/17 05:02:50;;;;;;;8.70;3.95;;;;;;;21.74;61.77;100687.85;1777928;78;21096;-61
2021/06/17 05:05:17;;;;;;;7.15;4.35;;;;;;;21.87;61.40;100692.50;1815707;77;22558;-66
2021/06/17 05:12:56;;;;;;;12.03;6.53;;;;;;;22.18;60.67;100684.69;1813513;77;21088;-60
2021/06/17 05:15:23;;;;;;;12.95;6.85;;;;;;;22.31;60.57;100700.93;1816371;78;21049;-60
2021/06/17 05:17:50;;;;;;;7.33;4.90;;;;;;;22.40;60.37;100705.13;1779085;78;21590;-59
2021/06/17 05:20:17;;;;;;;6.72;3.77;;;;;;;22.46;60.01;100711.58;1810393;77;21096;-63
2021/06/17 05:22:44;;;;;;;6.22;3.27;;;;;;;22.46;59.87;100712.92;1809416;78;21096;-65
2021/06/17 05:25:12;;;;;;;7.03;4.05;;;;;;;22.48;59.88;100712.22;1808064;77;21226;-66
2021/06/17 05:27:39;;;;;;;10.58;6.72;;;;;;;22.55;59.97;100713.61;1786611;79;21073;-59
2021/06/17 05:30:07;;;;;;;6.40;3.58;;;;;;;22.63;59.73;100720.18;1788230;79;22588;-60
2021/06/17 05:32:35;;;;;;;7.25;4.00;;;;;;;22.65;59.74;100715.45;1781441;78;21073;-65
2021/06/17 05:35:01;;;;;;;9.00;6.12;;;;;;;22.65;59.48;100722.15;1756874;79;21090;-61
2021/06/17 05:37:28;;;;;;;7.30;4.20;;;;;;;22.64;59.76;100724.50;1781418;78;21763;-58
2021/06/17 05:39:55;;;;;;;6.42;3.95;;;;;;;22.68;59.65;100725.79;1755288;79;21125;-62
2021/06/17 05:42:22;;;;;;;7.22;3.58;;;;;;;22.67;59.40;100724.12;1784718;78;21015;-59
2021/06/17 05:44:49;;;;;;;6.17;4.00;;;;;;;22.63;59.54;100732.25;1781328;78;21085;-59
2021/06/17 05:47:15;;;;;;;10.10;5.65;;;;;;;22.63;59.94;100730.91;1780628;78;21257;-60
2021/06/17 05:49:42;;;;;;;17.40;12.20;;;;;;;22.69;59.96;100735.47;1784155;78;21159;-61
2021/06/17 05:52:09;;;;;;;11.53;5.72;;;;;;;22.78;59.51;100730.30;1777971;78;20996;-70
2021/06/17 05:54:35;;;;;;;26.90;21.62;;;;;;;22.85;59.69;100731.69;1779220;78;21070;-60
2021/06/17 05:57:03;;;;;;;18.20;14.55;;;;;;;22.89;59.67;100730.78;1779407;78;21108;-61
2021/06/17 05:59:30;;;;;;;16.00;11.28;;;;;;;22.93;59.42;100723.50;1777858;78;21141;-60
2021/06/17 06:01:56;;;;;;;26.62;22.90;;;;;;;22.98;59.43;100733.62;1781439;78;21094;-60
2021/06/17 06:04:23;;;;;;;14.83;9.45;;;;;;;23.01;59.78;100734.58;1779778;78;21125;-59
2021/06/17 06:06:49;;;;;;;46.88;36.10;;;;;;;23.07;59.69;100733.02;1773777;77;21121;-59
2021/06/17 06:09:16;;;;;;;16.75;11.00;;;;;;;23.12;59.36;100730.56;1807812;78;21717;-59
2021/06/17 06:11:43;;;;;;;17.30;13.45;;;;;;;23.13;58.81;100733.55;1783808;78;21237;-59
2021/06/17 06:14:09;;;;;;;8.50;5.50;;;;;;;23.20;59.22;100730.41;1802050;78;21367;-59
2021/06/17 06:16:36;;;;;;;9.13;6.12;;;;;;;23.31;59.43;100731.70;1762753;79;21060;-60
2021/06/17 06:19:05;;;;;;;14.38;11.22;;;;;;;23.44;58.56;100731.77;1754451;79;21095;-59
2021/06/17 06:21:31;;;;;;;19.00;13.10;;;;;;;23.51;58.29;100732.62;1781597;78;20999;-62
2021/06/17 06:23:58;;;;;;;11.43;7.00;;;;;;;23.55;58.57;100728.52;1777665;78;22447;-59
2021/06/17 06:26:25;;;;;;;11.53;8.35;;;;;;;23.61;59.00;100728.75;1776360;78;21114;-66
2021/06/17 06:28:51;;;;;;;14.00;11.50;;;;;;;23.68;58.53;100726.91;1778128;78;21097;-67
2021/06/17 06:31:18;;;;;;;20.90;16.25;;;;;;;23.72;57.76;100727.66;1777353;78;21486;-62
2021/06/17 06:33:45;;;;;;;13.58;8.73;;;;;;;23.73;58.00;100731.16;1777976;78;21856;-63
2021/06/17 06:36:13;;;;;;;23.57;18.32;;;;;;;23.74;57.68;100734.17;1779242;79;21105;-68
2021/06/17 06:38:40;;;;;;;12.18;8.33;;;;;;;23.72;57.74;100737.55;1778305;78;21561;-64
2021/06/17 06:41:06;;;;;;;16.57;12.58;;;;;;;23.74;58.16;100737.68;1779559;78;21083;-64
2021/06/17 06:43:32;;;;;;;19.60;14.83;;;;;;;23.85;57.64;100732.26;1775469;78;21121;-62
2021/06/17 06:45:59;;;;;;;16.87;12.55;;;;;;;23.95;57.97;100730.53;1778470;78;21075;-57
2021/06/17 06:48:27;;;;;;;16.75;12.50;;;;;;;24.05;57.86;100732.84;1776452;78;21038;-58
2021/06/17 06:50:53;;;;;;;24.20;15.98;;;;;;;24.11;57.23;100729.34;1749668;78;21109;-58
2021/06/17 06:53:20;;;;;;;17.67;12.88;;;;;;;24.18;57.02;100730.18;1776746;78;21401;-58
2021/06/17 06:55:46;;;;;;;15.53;11.83;;;;;;;24.19;56.88;100726.97;1778363;78;21113;-58
2021/06/17 06:58:13;;;;;;;14.70;11.12;;;;;;;24.22;56.96;100729.25;1777653;78;21081;-58
2021/06/17 07:00:43;;;;;;;16.10;12.07;;;;;;;24.24;56.59;100726.69;1792605;78;21465;-59
2021/06/17 07:03:11;;;;;;;15.95;12.98;;;;;;;24.25;56.99;100726.98;1778469;79;21003;-60
2021/06/17 07:05:38;;;;;;;18.75;13.58;;;;;;;24.32;57.38;100727.52;1756532;79;21141;-58
2021/06/17 07:08:14;;;;;;;8.30;5.35;;;;;;;24.38;56.78;100725.36;1777448;78;21047;-59
2021/06/17 07:10:43;;;;;;;10.90;8.05;;;;;;;24.42;56.92;100734.12;1753433;79;27320;-62
2021/06/17 07:13:09;;;;;;;13.90;9.90;;;;;;;24.51;56.11;100733.93;1754759;79;21105;-60
2021/06/17 07:15:36;;;;;;;15.03;10.40;;;;;;;24.62;55.68;100738.73;1774556;79;21074;-58
2021/06/17 07:18:03;;;;;;;18.12;11.35;;;;;;;24.72;55.99;100739.67;1776117;78;21067;-63
2021/06/17 07:20:30;;;;;;;15.08;10.85;;;;;;;24.79;55.98;100743.17;1774389;78;21080;-62
2021/06/17 07:22:57;;;;;;;9.80;6.50;;;;;;;24.84;55.37;100751.45;1775425;79;21073;-58
2021/06/17 07:25:24;;;;;;;10.80;5.72;;;;;;;24.87;54.84;100742.97;1774021;78;21176;-58
2021/06/17 07:27:50;;;;;;;8.93;4.65;;;;;;;24.90;54.76;100745.74;1756516;80;21651;-58
2021/06/17 07:30:18;;;;;;;5.83;3.55;;;;;;;24.92;54.99;100745.04;1778541;78;21062;-59
2021/06/17 07:32:45;;;;;;;6.78;4.37;;;;;;;24.96;55.12;100748.95;1777848;80;21450;-59
2021/06/17 07:35:13;;;;;;;7.40;5.10;;;;;;;25.01;54.92;100751.31;1779306;79;21070;-59
2021/06/17 07:37:39;;;;;;;6.65;3.85;;;;;;;25.07;54.75;100752.89;1777768;79;21083;-58
2021/06/17 07:40:11;;;;;;;6.78;4.47;;;;;;;25.09;55.07;100749.46;1778592;79;21616;-58
2021/06/17 07:42:38;;;;;;;6.65;3.72;;;;;;;25.16;54.49;100751.09;1753871;78;21161;-59
2021/06/17 07:45:06;;;;;;;7.40;5.15;;;;;;;25.21;54.34;100743.73;1775809;78;21512;-59
2021/06/17 07:47:33;;;;;;;6.22;4.08;;;;;;;25.24;54.06;100743.31;1756786;78;21156;-59
2021/06/17 07:49:59;;;;;;;6.87;3.90;;;;;;;25.29;53.90;100746.23;1751991;79;21085;-59
2021/06/17 07:52:26;;;;;;;6.40;4.20;;;;;;;25.34;53.64;100747.77;1776499;78;21061;-59
2021/06/17 07:54:54;;;;;;;6.78;3.85;;;;;;;25.39;53.90;100753.34;1774434;78;21614;-59
2021/06/17 07:57:20;;;;;;;8.88;4.42;;;;;;;25.45;54.14;100758.92;1756025;79;21102;-58
2021/06/17 07:59:46;;;;;;;8.85;3.60;;;;;;;25.51;54.33;100763.47;1778930;79;21140;-64
2021/06/17 08:02:13;;;;;;;8.88;3.98;;;;;;;25.61;53.68;100767.08;1779530;78;21238;-63
2021/06/17 08:04:40;;;;;;;7.00;4.42;;;;;;;25.70;53.28;100773.33;1777006;78;21424;-64
2021/06/17 08:07:09;;;;;;;7.47;4.92;;;;;;;25.74;53.19;100762.45;1778414;78;21100;-65
2021/06/17 08:09:36;;;;;;;5.55;3.85;;;;;;;25.79;52.67;100765.86;1774157;78;21077;-63
2021/06/17 08:12:03;;;;;;;6.12;3.95;;;;;;;25.84;52.86;100762.50;1774564;78;21101;-64
2021/06/17 08:14:30;;;;;;;7.62;3.87;;;;;;;25.83;52.15;100763.03;1756686;78;21267;-65
2021/06/17 08:16:58;;;;;;;5.55;3.83;;;;;;;25.81;52.96;100772.39;1750564;79;21614;-62
2021/06/17 08:19:29;;;;;;;5.78;3.85;;;;;;;25.82;52.75;100772.67;1775277;78;22206;-62
2021/06/17 08:21:57;;;;;;;6.17;3.85;;;;;;;25.84;53.18;100775.47;1773214;78;21108;-63
2021/06/17 08:24:25;;;;;;;5.60;3.98;;;;;;;25.90;53.13;100775.13;1751739;79;21097;-62
2021/06/17 08:26:52;;;;;;;7.17;4.00;;;;;;;25.95;52.54;100773.99;1751629;80;21069;-64
2021/06/17 08:29:19;;;;;;;8.70;4.28;;;;;;;25.96;52.52;100778.35;1774165;79;21137;-63
2021/06/17 08:31:45;;;;;;;6.20;4.35;;;;;;;26.02;52.88;100772.08;1782389;79;21070;-62
2021/06/17 08:34:12;;;;;;;6.90;3.92;;;;;;;26.09;52.51;100766.15;1778476;78;22519;-63
2021/06/17 08:36:39;;;;;;;6.05;4.30;;;;;;;26.11;52.28;100764.06;1777265;79;21129;-63
2021/06/17 08:39:06;;;;;;;10.30;7.20;;;;;;;26.16;52.20;100771.51;1777159;78;21111;-62
2021/06/17 08:41:33;;;;;;;7.60;4.42;;;;;;;26.21;52.38;100765.44;1776564;79;21042;-64
2021/06/17 08:44:03;;;;;;;8.63;6.22;;;;;;;26.25;52.07;100765.33;1775684;79;21548;-61
2021/06/17 08:46:29;;;;;;;14.13;8.13;;;;;;;26.33;52.34;100777.20;1777013;79;21094;-65
2021/06/17 08:48:56;;;;;;;7.83;5.30;;;;;;;26.40;51.54;100779.86;1747948;79;21126;-62
2021/06/17 08:51:26;;;;;;;7.35;3.98;;;;;;;26.45;51.69;100772.75;1783861;79;21169;-59
2021/06/17 08:53:53;;;;;;;6.75;3.40;;;;;;;26.53;51.62;100777.57;1749742;78;21077;-59
2021/06/17 08:56:19;;;;;;;6.92;4.20;;;;;;;26.63;51.11;100775.23;1776488;79;21101;-58
2021/06/17 08:58:49;;;;;;;7.60;3.87;;;;;;;26.71;51.17;100774.97;1751537;79;21469;-58
2021/06/17 09:01:16;;;;;;;6.75;3.92;;;;;;;26.76;50.93;100774.31;1778862;78;21093;-58
2021/06/17 09:03:44;;;;;;;7.15;4.03;;;;;;;26.80;51.16;100778.24;1757314;79;21226;-59
2021/06/17 09:06:11;;;;;;;7.25;3.45;;;;;;;26.90;50.31;100772.31;1774532;78;21087;-58
2021/06/17 09:08:38;;;;;;;6.45;3.27;;;;;;;26.97;49.62;100770.41;1784061;78;21596;-59
2021/06/17 09:11:07;;;;;;;8.08;3.67;;;;;;;27.03;49.79;100781.64;1773703;78;21058;-57
2021/06/17 09:13:35;;;;;;;5.97;3.50;;;;;;;27.13;50.03;100779.80;1752314;79;21090;-60
2021/06/17 09:16:02;;;;;;;6.28;3.67;;;;;;;27.20;49.36;100776.49;1779138;78;21758;-58
2021/06/17 09:18:31;;;;;;;6.25;4.00;;;;;;;27.27;48.65;100775.08;1775655;78;21297;-59
2021/06/17 09:21:02;;;;;;;5.97;3.65;;;;;;;27.33;48.14;100778.27;1757817;79;21679;-58
2021/06/17 09:23:48;;;;;;;5.80;3.75;;;;;;;27.40;48.39;100777.66;1781852;78;21158;-59
2021/06/17 09:26:20;;;;;;;5.28;3.37;;;;;;;27.47;47.67;100770.83;1782005;78;21144;-59
2021/06/17 09:29:04;;;;;;;7.70;4.00;;;;;;;27.56;47.11;100773.55;1778835;78;21143;-59
2021/06/17 09:31:35;;;;;;;5.08;3.00;;;;;;;27.65;46.79;100775.41;1758762;78;21624;-58
2021/06/17 09:34:03;;;;;;;5.20;3.27;;;;;;;27.75;45.50;100769.76;1755370;79;21499;-60
2021/06/17 09:36:33;;;;;;;10.53;4.12;;;;;;;27.80;46.50;100773.95;1756642;78;21048;-59
2021/06/17 09:39:08;;;;;;;6.65;3.35;;;;;;;27.85;45.01;100775.98;1760390;79;21100;-59
2021/06/17 09:41:44;;;;;;;5.60;3.27;;;;;;;27.80;45.01;100772.61;1800827;78;21709;-59
2021/06/17 09:44:38;;;;;;;6.75;3.70;;;;;;;27.72;45.08;100766.69;1755174;78;21115;-59
2021/06/17 09:47:15;;;;;;;5.65;3.65;;;;;;;27.63;45.25;100774.29;1754066;78;21092;-60
2021/06/17 09:49:43;;;;;;;8.43;4.65;;;;;;;27.56;45.63;100774.37;1783601;79;21336;-59
2021/06/17 09:52:10;;;;;;;7.53;4.97;;;;;;;27.52;45.37;100771.83;1756821;79;21147;-58
2021/06/17 09:54:39;;;;;;;8.30;6.95;;;;;;;27.56;46.06;100775.72;1755168;79;21170;-59
2021/06/17 09:57:10;;;;;;;7.87;6.33;;;;;;;27.66;45.56;100772.48;1756313;79;21663;-58
2021/06/17 09:59:54;;;;;;;6.55;3.95;;;;;;;27.76;46.03;100778.72;1751613;79;21045;-59
2021/06/17 10:02:31;;;;;;;7.20;4.10;;;;;;;27.85;46.11;100774.63;1783049;78;21809;-59
2021/06/17 10:04:51;;;;;;;6.58;4.50;;;;;;;27.86;45.18;100776.83;1758355;79;21061;-58
2021/06/17 10:07:18;;;;;;;5.85;3.83;;;;;;;27.78;45.49;100779.31;1749713;79;21073;-60
2021/06/17 10:09:45;;;;;;;7.05;3.80;;;;;;;27.79;46.13;100776.91;1756913;78;21049;-59
2021/06/17 10:12:12;;;;;;;7.90;4.55;;;;;;;27.89;46.63;100773.64;1779338;78;21073;-59
2021/06/17 10:14:39;;;;;;;8.78;4.33;;;;;;;28.04;46.27;100773.27;1782633;78;21072;-59
2021/06/17 10:17:07;;;;;;;6.25;4.12;;;;;;;28.15;45.12;100769.80;1780967;78;21563;-59
2021/06/17 10:19:33;;;;;;;5.30;3.17;;;;;;;28.25;44.76;100761.94;1779053;78;21156;-59
2021/06/17 10:22:01;;;;;;;5.15;3.42;;;;;;;28.30;44.46;100767.48;1789753;77;20997;-58
2021/06/17 10:24:29;;;;;;;8.18;3.87;;;;;;;28.33;44.45;100759.44;1737018;79;21011;-59
2021/06/17 10:26:57;;;;;;;4.80;3.08;;;;;;;28.36;44.63;100761.66;1758837;79;21153;-59
2021/06/17 10:29:45;;;;;;;5.10;3.30;;;;;;;28.37;44.38;100752.50;1753605;79;21541;-61
2021/06/17 10:32:16;;;;;;;5.67;3.75;;;;;;;28.37;44.94;100752.50;1753288;79;21114;-59
2021/06/17 10:34:41;;;;;;;5.08;3.33;;;;;;;28.34;44.35;100751.59;1752711;79;21069;-58
2021/06/17 10:37:28;;;;;;;5.97;3.22;;;;;;;28.29;44.19;100747.41;1757590;79;21040;-59
2021/06/17 10:40:04;;;;;;;5.60;3.30;;;;;;;28.25;44.82;100749.77;1756147;79;21663;-58
2021/06/17 10:42:46;;;;;;;5.10;3.10;;;;;;;28.25;44.95;100741.64;1752170;80;21691;-58
2021/06/17 10:45:17;;;;;;;7.45;3.27;;;;;;;28.22;44.50;100736.69;1755911;79;21203;-60
2021/06/17 10:47:52;;;;;;;6.95;3.50;;;;;;;28.17;43.83;100726.55;1755861;79;21127;-60
2021/06/17 10:50:28;;;;;;;;;;;;;;;28.15;44.26;100725.97;1756853;79;21121;-60
2021/06/17 10:53:18;;;;;;;5.42;3.37;;;;;;;28.15;44.61;100727.86;1733208;79;20607;-59
2021/06/17 10:55:57;;;;;;;7.20;4.33;;;;;;;28.16;44.95;100725.47;1753548;79;21537;-59
2021/06/17 10:58:49;;;;;;;6.15;3.40;;;;;;;28.28;45.17;100718.19;1756117;79;21145;-59
2021/06/17 11:01:40;;;;;;;6.08;3.80;;;;;;;28.42;45.03;100719.33;1754659;79;21120;-59
2021/06/17 11:04:15;;;;;;;5.95;3.33;;;;;;;28.55;44.14;100716.41;1753889;79;21171;-59
2021/06/17 11:07:05;;;;;;;6.47;3.98;;;;;;;28.63;44.56;100710.67;1755705;79;21144;-59
2021/06/17 11:09:46;;;;;;;5.50;3.70;;;;;;;28.71;44.54;100704.06;1756143;79;21176;-59
2021/06/17 11:12:23;;;;;;;7.45;3.75;;;;;;;28.81;44.86;100708.36;1756574;79;21920;-59
2021/06/17 11:14:56;;;;;;;5.47;2.87;;;;;;;28.92;44.45;100709.43;1754953;79;21501;-59
2021/06/17 11:17:34;;;;;;;;;;;;;;;28.98;43.36;100704.40;1756433;79;21061;-59
2021/06/17 11:20:11;;;;;;;6.05;3.85;;;;;;;29.01;42.99;100701.22;1755013;79;20253;-59
2021/06/17 11:22:43;;;;;;;9.70;4.12;;;;;;;29.03;42.51;100696.41;1771963;78;21072;-60
2021/06/17 11:25:19;;;;;;;6.15;3.58;;;;;;;29.11;42.37;100692.49;1781699;78;21107;-59
2021/06/17 11:28:11;;;;;;;9.45;3.75;;;;;;;29.18;41.55;100691.04;1752699;78;21081;-59
2021/06/17 11:30:49;;;;;;;7.12;4.17;;;;;;;29.22;41.69;100695.75;1782267;78;21371;-60
2021/06/17 11:33:24;;;;;;;5.15;3.37;;;;;;;29.30;42.31;100689.11;1782538;78;21532;-59
2021/06/17 11:36:01;;;;;;;6.75;4.10;;;;;;;29.42;41.98;100694.50;1778666;78;21523;-59
2021/06/17 11:38:31;;;;;;;5.70;3.87;;;;;;;29.52;42.14;100689.30;1781822;79;21098;-59
2021/06/17 11:40:59;;;;;;;6.55;4.40;;;;;;;29.46;41.40;100687.01;1782086;79;21137;-60
2021/06/17 11:43:27;;;;;;;5.55;3.72;;;;;;;29.34;42.25;100693.55;1783121;78;21073;-60